Flight Track Log - Related Links

Times and Time Zones

All times are in EDT time to prevent confusion due to time zone crossing. See the KAP66 flight status page for this flight to view local times or setup timezone preferences in your user account.

Time Position Orientation Groundspeed Altitude Reporting Facility
EDT Latitude Longitude Course Direction KTS MPH feet Rate Location/Type
Tue 12:13:35 PM 42.2500 -71.0500 147° Southeast 188 216 1,600  Level KA90
Tue 12:14:35 PM 42.3000 -71.0333 14° North 173 199 1,200 -600 Descending KA90
Tue 12:15:35 PM 42.3500 -71.0167 14° North 146 168 400 -800 Descending KA90
Tue 12:17:00 PM 42.2953 -70.9680 103° East  Level Estimated
Tue 12:18:00 PM 41.8656 -70.5776 147° Southeast  Level Estimated
Tue 12:24:00 PM 42.1180 -70.6000 104° East  Level FlightAware Approximate
Tue 12:25:00 PM 42.1066 -70.5397 104° East  Level FlightAware Approximate
Tue 12:26:00 PM 42.0952 -70.4793 104° East  Level FlightAware Approximate
Tue 12:27:00 PM 42.0838 -70.4191 104° East  Level FlightAware Approximate
Tue 12:28:00 PM 42.0733 -70.3585 103° East  Level FlightAware Approximate
Tue 12:29:00 PM 42.0628 -70.2979 103° East  Level FlightAware Approximate
Tue 12:30:00 PM 42.0523 -70.2373 103° East  Level FlightAware Approximate
Tue 12:31:00 PM 42.0418 -70.1767 103° East  Level FlightAware Approximate
Tue 12:32:00 PM 42.0312 -70.1162 103° East  Level FlightAware Approximate
Tue 12:33:00 PM 42.0206 -70.0557 103° East  Level FlightAware Approximate
Tue 12:34:00 PM 41.9875 -70.0343 181° South  Level FlightAware Approximate
Tue 12:35:00 PM 41.9414 -70.0359 181° South  Level FlightAware Approximate
Tue 12:36:00 PM 41.8952 -70.0374 181° South  Level FlightAware Approximate
Tue 12:37:00 PM 41.8490 -70.0389 181° South  Level FlightAware Approximate
Tue 12:38:00 PM 41.8029 -70.0405 181° South  Level FlightAware Approximate
Tue 12:39:00 PM 41.7567 -70.0420 181° South  Level FlightAware Approximate
Tue 12:40:00 PM 41.7105 -70.0436 181° South  Level FlightAware Approximate
Tue 12:41:00 PM 41.6644 -70.0451 181° South  Level FlightAware Approximate
Tue 12:42:00 PM 41.6182 -70.0466 181° South  Level FlightAware Approximate
Tue 12:43:00 PM 41.5720 -70.0482 181° South  Level FlightAware Approximate
Tue 12:44:00 PM 41.5258 -70.0497 181° South  Level FlightAware Approximate
Tue 12:45:00 PM 41.4796 -70.0500 180° South  Level FlightAware Approximate
Tue 12:46:00 PM 41.4334 -70.0500 180° South  Level FlightAware Approximate
Tue 12:47:00 PM 41.3873 -70.0500 180° South  Level FlightAware Approximate
Tue 12:48:00 PM 41.3411 -70.0500 180° South  Level FlightAware Approximate
Tue 12:49:00 PM 41.2949 -70.0500 180° South  Level FlightAware Approximate
Tue 12:50:00 PM 41.2500 -70.0500 180° South  Level FlightAware Approximate
Tue 12:51:00 PM 41.2531 -70.0603 180° South  Level Estimated
Tue 12:52:00 PM 41.2531 -70.0603 180° South  Level Estimated
Tue 12:53:00 PM 41.2531 -70.0603 180° South  Level Estimated
Tue 12:54:00 PM 41.2531 -70.0603 180° South  Level Estimated
Tue 12:55:00 PM 41.2531 -70.0603 180° South  Level Estimated
Tue 12:56:00 PM 41.2531 -70.0603 180° South  Level Estimated
Tue 12:57:00 PM 41.2531 -70.0603 180° South  Level Estimated
Tue 12:58:00 PM 41.2531 -70.0603 180° South  Level Estimated
Tue 12:59:00 PM 41.2531 -70.0603 180° South  Level Estimated
Tue 01:00:00 PM 41.2531 -70.0603 180° South  Level Estimated
Tue 01:01:00 PM 41.2531 -70.0603 180° South  Level Estimated
Tue 01:02:00 PM 41.2531 -70.0603 180° South  Level Estimated
Tue 01:03:00 PM 41.2531 -70.0603 180° South  Level Estimated
Tue 01:04:00 PM 41.2531 -70.0603 180° South  Level Estimated
Tue 01:05:00 PM 41.2531 -70.0603 180° South  Level Estimated

Login

Don't have an account? Register now (free) for customized features, flight alerts, and more!